• Join FlightAware (Why Join?)
  • Login
  • US Flag 
04:59AM EST


 

Airport Tracker/Info


-or-


 

Live Flight TrackerFlight Track Log ✈ AAY825 ✈ 14-Jul-2014 ✈ KDSM - KPIE

Flight Track Log - Related Links

Times and Time Zones

All times are in EDT time to prevent confusion due to time zone crossing. See the AAY825 flight status page for this flight to view local times or setup timezone preferences in your user account.

Time Position Orientation Groundspeed Altitude Reporting Facility
EDT Latitude Longitude Course Direction KTS MPH feet Rate Location/Type
11:40AM 41.5467 -93.6389 77° East 150 173 1,400  Level Minneapolis Center
11:40AM 41.5544 -93.5942 68° East 198 228 2,700 1,680 Climbing Minneapolis Center
11:41AM 41.4994 -93.5400 144° Southeast 275 316 4,300 1,920 Climbing Minneapolis Center
11:42AM 41.4589 -93.5325 172° South 275 316 5,500 2,640 Climbing Minneapolis Center
11:43AM 41.3858 -93.4794 151° Southeast 293 337 8,300 2,280 Climbing Minneapolis Center
11:44AM 41.3175 -93.4239 149° Southeast 316 364 10,300 1,680 Climbing Minneapolis Center
11:45AM 41.2039 -93.3983 170° South 349 402 11,800 1,800 Climbing Minneapolis Center
11:46AM 41.0978 -93.3700 169° South 393 452 14,100 2,220 Climbing Minneapolis Center
11:47AM 41.0164 -93.3056 149° Southeast 419 482 16,000 2,100 Climbing Chicago Center
11:48AM 40.9181 -93.2119 144° Southeast 433 498 18,100 1,800 Climbing Chicago Center
11:49AM 40.8217 -93.1094 141° Southeast 442 509 19,800 1,740 Climbing Chicago Center
11:50AM 40.6972 -92.9861 143° Southeast 464 534 21,700 1,740 Climbing Chicago Center
11:51AM 40.5897 -92.8867 145° Southeast 472 543 23,400 1,380 Climbing Chicago Center
11:52AM 40.4794 -92.7853 145° Southeast 481 554 24,600 1,380 Climbing Chicago Center
11:53AM 40.3719 -92.6803 143° Southeast 485 558 26,300 1,440 Climbing Chicago Center
11:54AM 40.2528 -92.5658 144° Southeast 484 557 27,700 960 Climbing Kansas City Center
11:55AM 40.1450 -92.4642 144° Southeast 484 557 28,400 900 Climbing Kansas City Center
11:56AM 40.0350 -92.3628 145° Southeast 484 557 29,600 1,020 Climbing Kansas City Center
11:57AM 39.9081 -92.2417 144° Southeast 481 554 30,600 660 Climbing Kansas City Center
11:58AM 39.7989 -92.1419 145° Southeast 479 551 31,000 180 Climbing Kansas City Center
11:59AM 39.6928 -92.0406 144° Southeast 479 551 31,000  Level Kansas City Center
12:00PM 39.5817 -91.9417 146° Southeast 482 555 31,000  Level Kansas City Center
12:01PM 39.4519 -91.8200 144° Southeast 484 557 31,000  Level Kansas City Center
12:02PM 39.3439 -91.7203 144° Southeast 484 557 31,000  Level Kansas City Center
12:03PM 39.2369 -91.6228 145° Southeast 485 558 31,000  Level Kansas City Center
12:04PM 39.1294 -91.5225 144° Southeast 484 557 31,000  Level Kansas City Center
12:05PM 38.9964 -91.4036 145° Southeast 484 557 31,000  Level Kansas City Center
12:06PM 38.8861 -91.3050 145° Southeast 484 557 31,000  Level Kansas City Center
12:08PM 38.7775 -91.2072 145° Southeast 484 557 31,000 300 Level Kansas City Center
12:09PM 38.6689 -91.1117 146° Southeast 479 551 31,700 720 Climbing Kansas City Center
12:10PM 38.5578 -91.0136 145° Southeast 481 554 32,600 600 Climbing Kansas City Center
12:11PM 38.4272 -90.8964 145° Southeast 483 556 33,000 180 Climbing Kansas City Center
12:12PM 38.3178 -90.8003 145° Southeast 483 556 33,000  Level Kansas City Center
12:13PM 38.2100 -90.7039 145° Southeast 483 556 33,000  Level Kansas City Center
12:14PM 38.1022 -90.6100 146° Southeast 480 552 33,000  Level Kansas City Center
12:15PM 37.9936 -90.5158 146° Southeast 479 551 33,000  Level Kansas City Center
12:16PM 37.8636 -90.4028 146° Southeast 479 551 33,000  Level Kansas City Center
12:17PM 37.7594 -90.3131 146° Southeast 462 532 33,000  Level Kansas City Center
12:18PM 37.6533 -90.2225 146° Southeast 462 532 33,000  Level Kansas City Center
12:19PM 37.5469 -90.1300 145° Southeast 465 535 33,000  Level Kansas City Center
12:20PM 37.4375 -90.0322 145° Southeast 464 534 33,000  Level Kansas City Center
12:21PM 37.3336 -89.9339 143° Southeast 463 533 33,000  Level Memphis Center
12:22PM 37.2272 -89.8419 145° Southeast 463 533 33,000  Level Memphis Center
12:23PM 37.1206 -89.7500 145° Southeast 464 534 33,000  Level Memphis Center
12:24PM 37.0133 -89.6583 146° Southeast 464 534 33,000  Level Memphis Center
12:25PM 36.9064 -89.5622 144° Southeast 464 534 33,000  Level Memphis Center
12:26PM 36.7794 -89.4525 145° Southeast 465 535 33,000  Level Memphis Center
12:27PM 36.6756 -89.3628 145° Southeast 459 528 33,000  Level Memphis Center
12:28PM 36.5700 -89.2728 146° Southeast 456 525 33,000  Level Memphis Center
12:29PM 36.4628 -89.1794 145° Southeast 457 526 33,000  Level Memphis Center
12:30PM 36.3553 -89.0864 145° Southeast 457 526 33,000  Level Memphis Center
12:31PM 36.2497 -88.9989 146° Southeast 457 526 33,000  Level Memphis Center
12:32PM 36.1464 -88.9122 146° Southeast 452 520 33,000  Level Memphis Center
12:33PM 36.0417 -88.8261 146° Southeast 451 519 33,000  Level Memphis Center
12:34PM 35.9167 -88.7208 146° Southeast 451 519 33,000  Level Memphis Center
12:35PM 35.8106 -88.6286 145° Southeast 460 529 33,000  Level Memphis Center
12:36PM 35.7078 -88.5419 146° Southeast 454 522 33,000  Level Memphis Center
12:37PM 35.6011 -88.4567 147° Southeast 454 522 33,000  Level Memphis Center
12:38PM 35.4961 -88.3714 147° Southeast 454 522 33,000  Level Memphis Center
12:39PM 35.3792 -88.2731 146° Southeast 454 522 33,000  Level Memphis Center
12:40PM 35.2761 -88.1861 145° Southeast 453 521 33,000  Level Memphis Center
12:42PM 35.1714 -88.1017 147° Southeast 453 521 33,000  Level Memphis Center
12:43PM 35.0683 -88.0169 146° Southeast 451 519 33,000  Level Memphis Center
12:44PM 34.9642 -87.9344 147° Southeast 449 517 33,000  Level Memphis Center
12:45PM 34.8406 -87.8331 146° Southeast 448 516 33,000  Level Memphis Center
12:46PM 34.7378 -87.7492 146° Southeast 448 516 33,000  Level Memphis Center
12:47PM 34.6356 -87.6658 146° Southeast 447 514 33,000  Level Memphis Center
12:48PM 34.5264 -87.5783 147° Southeast 445 512 33,000  Level Memphis Center
12:49PM 34.4217 -87.4950 147° Southeast 445 512 33,000  Level Memphis Center
12:50PM 34.3175 -87.4117 147° Southeast 445 512 33,000  Level Memphis Center
12:51PM 34.2128 -87.3292 147° Southeast 445 512 33,000  Level Memphis Center
12:52PM 34.1122 -87.2486 146° Southeast 441 507 33,000  Level Memphis Center
12:53PM 33.9964 -87.1992 161° South 441 507 33,000  Level Memphis Center
12:54PM 33.8881 -87.0831 138° Southeast 434 499 33,000  Level Memphis Center
12:54PM 33.8389 -87.0450 147° Southeast 430 495 33,000  Level Atlanta Center
12:55PM 33.7386 -86.9617 145° Southeast 436 502 33,000  Level Atlanta Center
12:56PM 33.6428 -86.8708 142° Southeast 436 502 33,000  Level Atlanta Center
12:57PM 33.5489 -86.7756 140° Southeast 441 507 33,000  Level Atlanta Center
12:58PM 33.4550 -86.6781 139° Southeast 441 507 33,000  Level Atlanta Center
12:59PM 33.3608 -86.5881 141° Southeast 441 507 33,000  Level Atlanta Center
01:00PM 33.2586 -86.4883 141° Southeast 434 499 33,000  Level Atlanta Center
01:01PM 33.1644 -86.3939 140° Southeast 440 506 33,000  Level Atlanta Center
01:02PM 33.0700 -86.3019 141° Southeast 445 512 33,000  Level Atlanta Center
01:03PM 32.9756 -86.2128 142° Southeast 440 506 33,000  Level Atlanta Center
01:04PM 32.8833 -86.1192 140° Southeast 440 506 33,000  Level Atlanta Center
01:05PM 32.7908 -86.0306 141° Southeast 440 506 33,000  Level Atlanta Center
01:06PM 32.7044 -85.9469 141° Southeast 445 512 33,000  Level Atlanta Center
01:07PM 32.6119 -85.8561 140° Southeast 445 512 33,000  Level Atlanta Center
01:08PM 32.5194 -85.7681 141° Southeast 440 506 33,000  Level Atlanta Center
01:09PM 32.4203 -85.6775 142° Southeast 440 506 33,000  Level Atlanta Center
01:10PM 32.3214 -85.5725 138° Southeast 446 513 33,000  Level Atlanta Center
01:11PM 32.2244 -85.4800 141° Southeast 446 513 33,000  Level Atlanta Center
01:14PM 32.0269 -85.2917 141° Southeast 440 506 33,000  Level Jacksonville Center
01:15PM 31.9325 -85.2058 142° Southeast 440 506 33,000  Level Jacksonville Center
01:16PM 31.8319 -85.1081 140° Southeast 440 506 33,000  Level Jacksonville Center
01:17PM 31.7333 -85.0178 142° Southeast 440 506 33,000  Level Jacksonville Center
01:18PM 31.6408 -84.9253 140° Southeast 440 506 33,000  Level Jacksonville Center
01:19PM 31.5461 -84.8381 142° Southeast 440 506 33,000  Level Jacksonville Center
01:20PM 31.4617 -84.7583 141° Southeast 440 506 33,000  Level Jacksonville Center
01:21PM 31.3669 -84.6711 142° Southeast 440 506 33,000  Level Jacksonville Center
01:22PM 31.2614 -84.6036 151° Southeast 440 506 33,000  Level Jacksonville Center
01:23PM 31.1450 -84.5650 164° South 427 491 33,000  Level Jacksonville Center
01:24PM 31.0264 -84.5339 167° South 427 491 33,000  Level Jacksonville Center
01:25PM 30.9078 -84.4956 165° South 437 503 33,000  Level Jacksonville Center
01:26PM 30.7914 -84.4525 162° South 437 503 33,000  Level Jacksonville Center
01:27PM 30.6731 -84.4117 163° South 437 503 33,000  Level Jacksonville Center
01:28PM 30.5567 -84.3689 162° South 437 503 33,000  Level Jacksonville Center
01:29PM 30.4383 -84.3019 154° Southeast 437 503 33,000  Level Jacksonville Center
01:30PM 30.3306 -84.2306 150° Southeast 437 503 33,000  Level Jacksonville Center
01:31PM 30.2289 -84.1572 148° Southeast 437 503 33,000  Level Jacksonville Center
01:32PM 30.1189 -84.0883 152° Southeast 442 509 33,000  Level Jacksonville Center
01:33PM 30.0111 -84.0225 152° Southeast 442 509 33,000  Level Jacksonville Center
01:34PM 29.9050 -83.9539 151° Southeast 442 509 33,000 -420 Level Jacksonville Center
01:35PM 29.7972 -83.8833 150° Southeast 437 503 32,200 -1,200 Descending Jacksonville Center
01:36PM 29.6869 -83.8106 150° Southeast 444 511 30,700 -1,620 Descending Jacksonville Center
01:37PM 29.5769 -83.7403 151° Southeast 449 517 29,000 -1,740 Descending Jacksonville Center
01:38PM 29.4644 -83.6678 151° Southeast 449 517 27,300 -1,560 Descending Jacksonville Center
01:39PM 29.3647 -83.6028 150° Southeast 461 531 25,900 -1,200 Descending Jacksonville Center
01:40PM 29.2692 -83.5044 138° Southeast 461 531 25,000 -960 Descending Jacksonville Center
01:41PM 29.1758 -83.4017 136° Southeast 461 531 24,000 -1,260 Descending Jacksonville Center
01:42PM 29.0781 -83.3011 138° Southeast 466 536 22,500 -1,500 Descending Jacksonville Center
01:43PM 28.9739 -83.2225 147° Southeast 459 528 21,000 -1,500 Descending Jacksonville Center
01:44PM 28.8592 -83.1747 160° South 439 505 19,500 -1,560 Descending Jacksonville Center
01:45PM 28.6836 -83.1133 163° South 421 484 17,100 -1,620 Descending Miami Center
01:46PM 28.6167 -83.1000 170° South 404 465 16,300 -1,680 Descending Tampa TRACON
01:47PM 28.5333 -83.0500 152° Southeast 357 411 14,600 -1,500 Descending Tampa TRACON
01:48PM 28.4333 -83.0167 164° South 337 388 13,400 -1,200 Descending Tampa TRACON
01:49PM 28.3667 -82.9667 147° Southeast 296 341 12,200 -1,440 Descending Tampa TRACON
01:49PM 28.3381 -82.9172 123° Southeast 297 342 11,100 -1,620 Descending Miami Center
01:50PM 28.2811 -82.8511 134° Southeast 295 339 9,500 -1,620 Descending Miami Center
01:51PM 28.2264 -82.7861 134° Southeast 286 329 7,800 -1,740 Descending Miami Center
01:52PM 28.1658 -82.7322 142° Southeast 281 323 6,000 -1,740 Descending Miami Center
01:53PM 28.0950 -82.7053 161° South 274 315 4,300 -1,920 Descending Miami Center
01:54PM 28.0289 -82.6828 163° South 257 296 2,100 -1,620 Descending Miami Center
01:55PM 27.9667 -82.6833 180° South 162 186 1,100 -1,020 Descending Tampa TRACON